createdAt,value
2018-11-20T00:00:02.389Z,19.40
2018-11-20T00:02:56.248Z,20.53
2018-11-20T00:05:49.817Z,19.03
2018-11-20T00:08:36.755Z,17.77
2018-11-20T00:11:16.032Z,22.47
2018-11-20T00:13:56.493Z,20.00
2018-11-20T00:16:43.352Z,20.97
2018-11-20T00:19:49.697Z,20.27
2018-11-20T00:22:38.960Z,23.17
2018-11-20T00:25:33.145Z,22.70
2018-11-20T00:28:19.987Z,22.10
2018-11-20T00:31:20.164Z,22.67
2018-11-20T00:34:03.791Z,19.93
2018-11-20T00:36:51.169Z,23.67
2018-11-20T00:39:37.136Z,20.37
2018-11-20T00:42:24.843Z,22.07
2018-11-20T00:45:21.891Z,21.23
2018-11-20T00:48:18.948Z,22.77
2018-11-20T00:51:09.763Z,21.73
2018-11-20T00:54:01.216Z,21.33
2018-11-20T00:57:03.909Z,23.43
2018-11-20T00:59:54.357Z,22.93
2018-11-20T01:02:41.591Z,24.93
2018-11-20T01:05:28.834Z,21.30
2018-11-20T01:08:15.853Z,23.37
2018-11-20T01:11:03.441Z,23.83
2018-11-20T01:13:54.200Z,19.97
2018-11-20T01:16:41.167Z,24.90
2018-11-20T01:19:35.359Z,23.47
2018-11-20T01:22:29.529Z,23.87
2018-11-20T01:25:16.480Z,26.63
2018-11-20T01:28:04.768Z,21.97
2018-11-20T01:30:55.958Z,25.47
2018-11-20T01:33:49.979Z,26.77
2018-11-20T01:36:47.503Z,26.50
2018-11-20T01:39:34.995Z,29.83
2018-11-20T01:42:33.785Z,26.43
2018-11-20T01:45:22.063Z,27.77
2018-11-20T01:48:25.548Z,32.57
2018-11-20T01:51:12.509Z,32.57
2018-11-20T01:54:06.804Z,28.33
2018-11-20T01:56:55.113Z,27.33
2018-11-20T01:59:42.160Z,29.57
2018-11-20T02:02:36.472Z,31.77
2018-11-20T02:05:34.719Z,30.43
2018-11-20T02:08:21.451Z,32.67
2018-11-20T02:11:10.905Z,29.87
2018-11-20T02:14:09.173Z,30.67
2018-11-20T02:17:22.968Z,30.40
2018-11-20T02:20:06.358Z,28.63
2018-11-20T02:22:53.053Z,29.17
2018-11-20T02:25:50.285Z,27.03
2018-11-20T02:28:38.680Z,33.33
2018-11-20T02:31:36.026Z,28.77
2018-11-20T02:34:24.709Z,31.50
2018-11-20T02:37:27.259Z,28.90
2018-11-20T02:40:06.680Z,29.67
2018-11-20T02:43:00.920Z,31.73
2018-11-20T02:45:49.267Z,26.13
2018-11-20T02:48:43.469Z,31.37
2018-11-20T02:51:45.708Z,28.67
2018-11-20T02:54:32.772Z,30.73
2018-11-20T02:57:30.573Z,29.33
2018-11-20T03:00:16.325Z,32.67
2018-11-20T03:02:59.630Z,31.43
2018-11-20T03:05:45.662Z,29.07
2018-11-20T03:08:32.446Z,26.17
2018-11-20T03:11:26.500Z,24.30
2018-11-20T03:14:17.679Z,25.20
2018-11-20T03:17:08.645Z,27.43
2018-11-20T03:19:59.628Z,26.03
2018-11-20T03:22:46.308Z,28.70
2018-11-20T03:25:59.572Z,29.73
2018-11-20T03:28:59.601Z,27.13
2018-11-20T03:31:46.248Z,26.80
2018-11-20T03:34:27.741Z,27.67
2018-11-20T03:37:30.958Z,29.43
2018-11-20T03:40:37.069Z,25.67
2018-11-20T03:43:31.264Z,26.27
2018-11-20T03:46:17.200Z,26.13
2018-11-20T03:49:04.419Z,31.17
2018-11-20T03:51:55.737Z,26.33
2018-11-20T03:54:40.743Z,24.97
2018-11-20T03:57:41.289Z,22.90
2018-11-20T04:00:33.573Z,23.77
2018-11-20T04:03:21.253Z,22.20
2018-11-20T04:06:24.577Z,24.33
2018-11-20T04:09:11.513Z,25.43
2018-11-20T04:11:58.614Z,25.83
2018-11-20T04:14:45.685Z,25.90
2018-11-20T04:17:43.468Z,26.83
2018-11-20T04:20:37.668Z,23.00
2018-11-20T04:23:30.590Z,24.20
2018-11-20T04:26:17.575Z,29.00
2018-11-20T04:28:56.580Z,22.60
2018-11-20T04:32:11.142Z,24.03
2018-11-20T04:35:03.172Z,25.10
2018-11-20T04:37:57.410Z,23.40
2018-11-20T04:40:36.911Z,23.17
2018-11-20T04:43:17.402Z,25.70
2018-11-20T04:46:20.970Z,24.30
2018-11-20T04:49:21.141Z,24.27
2018-11-20T04:52:15.246Z,23.80
2018-11-20T04:55:01.870Z,19.03
2018-11-20T04:57:50.094Z,25.57
2018-11-20T05:00:41.516Z,24.13
2018-11-20T05:03:27.879Z,22.27
2018-11-20T05:06:34.328Z,23.73
2018-11-20T05:09:21.081Z,23.13
2018-11-20T05:12:18.363Z,27.10
2018-11-20T05:15:05.052Z,23.93
2018-11-20T05:17:59.323Z,31.53
2018-11-20T05:20:50.278Z,22.57
2018-11-20T05:23:41.369Z,22.27
2018-11-20T05:26:18.245Z,22.03
2018-11-20T05:28:57.485Z,28.40
2018-11-20T05:31:44.431Z,24.33
2018-11-20T05:34:35.623Z,26.30
2018-11-20T05:37:29.976Z,29.17
2018-11-20T05:40:18.502Z,23.47
2018-11-20T05:43:05.426Z,23.97
2018-11-20T05:46:08.862Z,21.70
2018-11-20T05:48:55.706Z,24.73
2018-11-20T05:51:42.487Z,24.20
2018-11-20T05:54:36.249Z,21.50
2018-11-20T05:57:36.791Z,22.90
2018-11-20T06:00:24.053Z,23.23
2018-11-20T06:03:10.771Z,27.10
2018-11-20T06:05:50.395Z,34.23
2018-11-20T06:08:31.078Z,30.37
2018-11-20T06:11:31.497Z,28.37
2018-11-20T06:14:37.732Z,24.83
2018-11-20T06:17:34.856Z,29.30
2018-11-20T06:20:23.198Z,30.57
2018-11-20T06:23:17.371Z,32.67
2018-11-20T06:26:24.034Z,31.10
2018-11-20T06:29:09.346Z,31.17
2018-11-20T06:31:57.517Z,31.50
2018-11-20T06:34:35.561Z,28.30
2018-11-20T06:37:34.867Z,26.83
2018-11-20T06:40:23.154Z,29.73
2018-11-20T06:43:14.297Z,31.73
2018-11-20T06:46:02.595Z,30.63
2018-11-20T06:48:43.468Z,34.43
2018-11-20T06:51:46.676Z,35.80
2018-11-20T06:54:30.362Z,34.73
2018-11-20T06:57:24.653Z,32.50
2018-11-20T07:00:18.606Z,35.10
2018-11-20T07:03:15.684Z,38.77
2018-11-20T07:06:06.774Z,33.10
2018-11-20T07:09:00.830Z,37.60
2018-11-20T07:11:47.821Z,37.23
2018-11-20T07:14:37.610Z,35.53
2018-11-20T07:17:29.309Z,35.17
2018-11-20T07:20:17.574Z,33.43
2018-11-20T07:23:03.666Z,31.43
2018-11-20T07:25:50.423Z,31.07
2018-11-20T07:28:44.307Z,32.33
2018-11-20T07:31:31.229Z,32.47
2018-11-20T07:34:17.929Z,37.47
2018-11-20T07:37:04.736Z,32.93
2018-11-20T07:39:55.802Z,34.50
2018-11-20T07:42:53.385Z,31.13
2018-11-20T07:45:40.521Z,30.93
2018-11-20T07:48:27.197Z,28.17
2018-11-20T07:51:17.975Z,34.10
2018-11-20T07:54:08.939Z,33.53
2018-11-20T07:57:05.334Z,32.10
2018-11-20T08:00:02.263Z,32.90
2018-11-20T08:02:59.272Z,30.53
2018-11-20T08:06:09.702Z,31.30
2018-11-20T08:08:57.931Z,34.83
2018-11-20T08:11:55.292Z,34.50
2018-11-20T08:14:58.772Z,33.30
2018-11-20T08:17:55.967Z,33.63
2018-11-20T08:20:49.113Z,32.50
2018-11-20T08:23:52.320Z,27.07
2018-11-20T08:26:46.457Z,32.17
2018-11-20T08:29:26.748Z,34.07
2018-11-20T08:32:15.077Z,31.67
2018-11-20T08:34:54.299Z,29.83
2018-11-20T08:37:41.065Z,31.17
2018-11-20T08:40:27.563Z,31.53
2018-11-20T08:43:15.851Z,27.77
2018-11-20T08:46:02.775Z,26.53
2018-11-20T08:48:51.023Z,33.07
2018-11-20T08:51:38.118Z,27.83
2018-11-20T08:54:18.489Z,25.83
2018-11-20T08:57:09.632Z,26.03
2018-11-20T09:00:03.391Z,27.87
2018-11-20T09:02:46.102Z,26.73
2018-11-20T09:05:46.357Z,24.77
2018-11-20T09:08:33.443Z,28.47
2018-11-20T09:11:20.245Z,26.00
2018-11-20T09:14:14.215Z,23.40
2018-11-20T09:17:20.585Z,23.60
2018-11-20T09:20:08.953Z,27.73
2018-11-20T09:22:59.973Z,28.57
2018-11-20T09:25:50.422Z,27.80
2018-11-20T09:28:37.060Z,27.23
2018-11-20T09:31:23.249Z,31.33
2018-11-20T09:34:11.611Z,30.07
2018-11-20T09:36:58.330Z,27.70
2018-11-20T09:39:47.505Z,29.40
2018-11-20T09:42:42.170Z,29.97
2018-11-20T09:46:14.886Z,28.93
2018-11-20T09:48:58.704Z,28.53
2018-11-20T09:51:50.214Z,24.03
2018-11-20T09:54:38.426Z,26.63
2018-11-20T09:57:44.695Z,31.93
2018-11-20T10:00:38.933Z,24.37
2018-11-20T10:03:36.220Z,28.60
2018-11-20T10:06:23.307Z,28.13
2018-11-20T10:09:20.839Z,27.07
2018-11-20T10:12:04.499Z,27.13
2018-11-20T10:14:46.186Z,29.67
2018-11-20T10:17:40.612Z,29.27
2018-11-20T10:20:22.972Z,29.13
2018-11-20T10:23:13.744Z,29.27
2018-11-20T10:26:05.184Z,24.87
2018-11-20T10:29:00.826Z,30.40
2018-11-20T10:31:51.827Z,27.93
2018-11-20T10:34:38.694Z,27.20
2018-11-20T10:37:26.812Z,25.67
2018-11-20T10:40:13.473Z,28.20
2018-11-20T10:43:00.213Z,30.53
2018-11-20T10:45:48.434Z,30.77
2018-11-20T10:48:35.498Z,26.73
2018-11-20T10:51:18.674Z,26.73
2018-11-20T10:54:06.821Z,26.33
2018-11-20T10:56:53.792Z,29.93
2018-11-20T10:59:40.576Z,27.83
2018-11-20T11:02:27.337Z,28.43
2018-11-20T11:05:14.102Z,30.33
2018-11-20T11:08:01.869Z,27.07
2018-11-20T11:10:39.676Z,28.37
2018-11-20T11:13:26.576Z,25.73
2018-11-20T11:16:13.558Z,29.33
2018-11-20T11:19:00.644Z,25.93
2018-11-20T11:21:58.731Z,30.20
2018-11-20T11:24:50.088Z,28.70
2018-11-20T11:27:36.947Z,27.40
2018-11-20T11:30:25.699Z,28.93
2018-11-20T11:33:13.425Z,26.93
2018-11-20T11:35:57.821Z,28.67
2018-11-20T11:38:36.169Z,29.47
2018-11-20T11:41:25.140Z,26.10
2018-11-20T11:44:23.866Z,26.53
2018-11-20T11:47:10.537Z,24.27
2018-11-20T11:49:57.692Z,29.93
2018-11-20T11:52:40.417Z,26.57
2018-11-20T11:55:27.829Z,32.23
2018-11-20T11:58:18.980Z,27.80
2018-11-20T12:01:06.031Z,29.83
2018-11-20T12:03:54.422Z,28.07
2018-11-20T12:06:48.667Z,30.53
2018-11-20T12:09:36.961Z,29.20
2018-11-20T12:12:24.060Z,33.13
2018-11-20T12:15:11.090Z,26.87
2018-11-20T12:18:05.344Z,28.53
2018-11-20T12:20:56.694Z,30.23
2018-11-20T12:23:48.016Z,31.40
2018-11-20T12:26:35.248Z,28.47
2018-11-20T12:29:17.116Z,26.00
2018-11-20T12:32:08.509Z,28.90
2018-11-20T12:34:50.774Z,27.63
2018-11-20T12:37:40.756Z,29.17
2018-11-20T12:40:25.745Z,26.53
2018-11-20T12:43:20.015Z,25.17
2018-11-20T12:46:11.196Z,28.97
2018-11-20T12:48:56.338Z,29.70
2018-11-20T12:51:39.645Z,20.90
2018-11-20T12:54:33.900Z,24.70
2018-11-20T12:57:31.113Z,24.67
2018-11-20T13:00:18.224Z,27.13
2018-11-20T13:03:05.250Z,23.90
2018-11-20T13:05:59.591Z,27.90
2018-11-20T13:08:47.140Z,27.80
2018-11-20T13:11:35.559Z,30.17
2018-11-20T13:14:22.565Z,25.80
2018-11-20T13:17:13.750Z,24.77
2018-11-20T13:20:03.764Z,26.87
2018-11-20T13:23:03.926Z,27.27
2018-11-20T13:25:51.071Z,26.23
2018-11-20T13:28:38.083Z,27.73
2018-11-20T13:31:24.943Z,28.63
2018-11-20T13:34:11.931Z,27.77
2018-11-20T13:37:13.801Z,28.13
2018-11-20T13:40:00.979Z,29.53
2018-11-20T13:42:40.654Z,29.17
2018-11-20T13:45:31.620Z,32.83
2018-11-20T13:48:11.566Z,28.57
2018-11-20T13:51:08.604Z,28.87
2018-11-20T13:53:46.681Z,32.40
2018-11-20T13:56:41.134Z,31.27
2018-11-20T13:59:41.140Z,28.93
2018-11-20T14:02:29.414Z,32.43
2018-11-20T14:05:16.453Z,28.57
2018-11-20T14:08:03.730Z,31.60
2018-11-20T14:10:46.134Z,31.57
2018-11-20T14:13:32.844Z,36.20
2018-11-20T14:16:33.066Z,26.57
2018-11-20T14:19:20.418Z,32.30
2018-11-20T14:21:58.730Z,30.73
2018-11-20T14:24:46.844Z,35.30
2018-11-20T14:27:37.157Z,30.67
2018-11-20T14:30:26.414Z,34.00
2018-11-20T14:33:30.004Z,36.90
2018-11-20T14:36:23.518Z,33.03
2018-11-20T14:39:11.185Z,33.47
2018-11-20T14:42:05.177Z,35.03
2018-11-20T14:44:51.964Z,33.93
2018-11-20T14:47:38.674Z,38.07
2018-11-20T14:50:42.528Z,36.70
2018-11-20T14:53:33.611Z,35.43
2018-11-20T14:56:15.102Z,32.30
2018-11-20T14:59:01.842Z,37.07
2018-11-20T15:01:55.814Z,32.50
2018-11-20T15:04:46.740Z,41.67
2018-11-20T15:07:40.682Z,37.30
2018-11-20T15:10:40.117Z,41.63
2018-11-20T15:13:32.737Z,32.07
2018-11-20T15:16:33.276Z,35.77
2018-11-20T15:19:13.427Z,36.37
2018-11-20T15:22:16.647Z,39.23
2018-11-20T15:24:53.551Z,40.57
2018-11-20T15:27:38.426Z,37.93
2018-11-20T15:30:22.944Z,35.73
2018-11-20T15:33:00.519Z,39.43
2018-11-20T15:35:43.077Z,40.33
2018-11-20T15:38:19.676Z,35.90
2018-11-20T15:41:06.462Z,37.83
2018-11-20T15:44:07.110Z,39.87
2018-11-20T15:47:01.279Z,40.30
2018-11-20T15:49:48.483Z,41.67
2018-11-20T15:52:42.808Z,39.10
2018-11-20T15:55:29.873Z,43.27
2018-11-20T15:58:23.483Z,43.27
2018-11-20T16:01:10.286Z,40.23
2018-11-20T16:03:53.869Z,41.60
2018-11-20T16:07:01.813Z,44.40
2018-11-20T16:09:43.953Z,48.27
2018-11-20T16:12:32.138Z,46.43
2018-11-20T16:15:29.681Z,45.90
2018-11-20T16:18:16.385Z,40.70
2018-11-20T16:21:04.644Z,43.03
2018-11-20T16:23:53.044Z,48.13
2018-11-20T16:26:41.324Z,43.30
2018-11-20T16:29:29.302Z,45.17
2018-11-20T16:32:17.573Z,47.53
2018-11-20T16:35:08.571Z,43.23
2018-11-20T16:37:55.211Z,45.10
2018-11-20T16:40:50.792Z,41.67
2018-11-20T16:43:37.655Z,40.60
2018-11-20T16:46:40.746Z,39.47
2018-11-20T16:49:27.497Z,41.83
2018-11-20T16:52:10.510Z,37.27
2018-11-20T16:54:57.743Z,39.77
2018-11-20T16:57:36.307Z,42.10
2018-11-20T17:00:39.059Z,39.30
2018-11-20T17:03:27.397Z,36.37
2018-11-20T17:06:12.423Z,44.30
2018-11-20T17:09:09.771Z,41.70
2018-11-20T17:11:52.398Z,42.50
2018-11-20T17:14:37.177Z,39.30
2018-11-20T17:17:24.029Z,36.30
2018-11-20T17:20:24.219Z,40.83
2018-11-20T17:23:09.027Z,35.20
2018-11-20T17:25:59.310Z,40.30
2018-11-20T17:28:48.153Z,38.53
2018-11-20T17:31:45.535Z,39.20
2018-11-20T17:34:27.416Z,40.30
2018-11-20T17:37:14.386Z,40.37
2018-11-20T17:40:01.336Z,39.13
2018-11-20T17:42:55.524Z,41.23
2018-11-20T17:45:42.830Z,35.63
2018-11-20T17:48:49.684Z,40.97
2018-11-20T17:51:38.589Z,36.00
2018-11-20T17:54:25.330Z,37.43
2018-11-20T17:57:19.362Z,42.27
2018-11-20T18:00:13.182Z,35.20
2018-11-20T18:03:01.573Z,39.60
2018-11-20T18:05:55.830Z,39.97
2018-11-20T18:08:54.495Z,39.73
2018-11-20T18:11:35.486Z,44.57
2018-11-20T18:14:30.175Z,41.03
2018-11-20T18:17:21.318Z,37.30
2018-11-20T18:20:09.688Z,47.23
2018-11-20T18:22:52.417Z,45.53
2018-11-20T18:25:39.498Z,41.00
2018-11-20T18:28:25.651Z,46.07
2018-11-20T18:31:19.947Z,43.50
2018-11-20T18:34:06.612Z,45.97
2018-11-20T18:36:52.227Z,50.23
2018-11-20T18:39:43.168Z,44.80
2018-11-20T18:42:31.595Z,54.90
2018-11-20T18:45:18.482Z,48.97
2018-11-20T18:48:05.439Z,49.47
2018-11-20T18:51:02.251Z,49.63
2018-11-20T18:53:48.190Z,49.47
2018-11-20T18:56:39.534Z,46.33
2018-11-20T18:59:27.427Z,46.70
2018-11-20T19:02:14.310Z,51.83
2018-11-20T19:04:58.153Z,51.37
2018-11-20T19:08:01.098Z,51.13
2018-11-20T19:10:48.886Z,51.07
2018-11-20T19:13:37.238Z,50.27
2018-11-20T19:16:24.625Z,46.90
2018-11-20T19:19:07.083Z,49.43
2018-11-20T19:21:58.283Z,48.50
2018-11-20T19:24:55.587Z,48.80
2018-11-20T19:27:56.071Z,48.97
2018-11-20T19:30:44.314Z,47.13
2018-11-20T19:33:38.598Z,48.33
2018-11-20T19:36:25.748Z,52.47
2018-11-20T19:39:12.877Z,52.17
2018-11-20T19:42:06.825Z,52.17
2018-11-20T19:45:00.925Z,53.47
2018-11-20T19:47:49.183Z,53.70
2018-11-20T19:50:35.961Z,54.90
2018-11-20T19:53:15.210Z,46.47
2018-11-20T19:56:15.442Z,57.63
2018-11-20T19:58:59.828Z,55.63
2018-11-20T20:01:59.925Z,52.23
2018-11-20T20:04:49.945Z,54.63
2018-11-20T20:07:30.717Z,57.63
2018-11-20T20:10:30.805Z,56.67
2018-11-20T20:13:15.894Z,55.27
2018-11-20T20:16:22.346Z,53.10
2018-11-20T20:19:09.431Z,57.43
2018-11-20T20:22:00.502Z,54.27
2018-11-20T20:24:57.832Z,56.40
2018-11-20T20:28:04.551Z,54.87
2018-11-20T20:30:48.116Z,54.93
2018-11-20T20:33:36.378Z,57.67
2018-11-20T20:36:23.838Z,61.73
2018-11-20T20:39:05.420Z,50.97
2018-11-20T20:41:52.053Z,53.33
2018-11-20T20:44:38.768Z,56.80
2018-11-20T20:47:32.878Z,54.23
2018-11-20T20:50:16.771Z,57.93
2018-11-20T20:53:36.744Z,59.87
2018-11-20T20:56:27.861Z,59.93
2018-11-20T20:59:22.497Z,61.70
2018-11-20T21:02:18.889Z,63.53
2018-11-20T21:05:01.312Z,56.63
2018-11-20T21:07:47.608Z,55.60
2018-11-20T21:10:33.792Z,63.90
2018-11-20T21:13:19.629Z,67.00
2018-11-20T21:16:06.025Z,63.53
2018-11-20T21:18:59.452Z,64.17
2018-11-20T21:21:55.898Z,59.37
2018-11-20T21:24:45.765Z,59.43
2018-11-20T21:27:33.024Z,57.27
2018-11-20T21:30:10.081Z,60.23
2018-11-20T21:32:56.224Z,55.63
2018-11-20T21:35:53.080Z,51.80
2018-11-20T21:38:47.827Z,55.70
2018-11-20T21:41:33.952Z,55.07
2018-11-20T21:44:20.237Z,54.93
2018-11-20T21:47:07.746Z,54.77
2018-11-20T21:49:53.531Z,58.30
2018-11-20T21:52:39.384Z,54.37
2018-11-20T21:55:33.513Z,52.60
2018-11-20T21:58:38.984Z,55.23
2018-11-20T22:01:46.172Z,56.73
2018-11-20T22:04:36.208Z,56.57
2018-11-20T22:07:24.347Z,54.33
2018-11-20T22:10:20.429Z,54.70
2018-11-20T22:13:17.259Z,53.67
2018-11-20T22:16:03.954Z,58.47
2018-11-20T22:19:00.348Z,57.53
2018-11-20T22:21:40.306Z,59.80
2018-11-20T22:24:42.708Z,53.93
2018-11-20T22:27:29.171Z,58.40
2018-11-20T22:30:16.703Z,57.97
2018-11-20T22:33:12.907Z,52.90
2018-11-20T22:35:49.392Z,53.37
2018-11-20T22:38:26.047Z,53.30
2018-11-20T22:41:31.799Z,55.20
2018-11-20T22:44:28.423Z,58.20
2018-11-20T22:47:34.585Z,55.80
2018-11-20T22:50:31.861Z,56.67
2018-11-20T22:53:25.382Z,56.03
2018-11-20T22:56:24.927Z,54.80
2018-11-20T22:59:12.521Z,53.70
2018-11-20T23:02:09.029Z,56.37
2018-11-20T23:04:53.884Z,51.40
2018-11-20T23:07:39.905Z,60.73
2018-11-20T23:10:08.325Z,52.73
2018-11-20T23:12:36.963Z,51.93
2018-11-20T23:15:08.542Z,60.30
2018-11-20T23:17:36.863Z,54.93
2018-11-20T23:20:06.259Z,56.03
2018-11-20T23:22:34.729Z,55.03
2018-11-20T23:25:03.255Z,50.13
2018-11-20T23:27:32.339Z,51.40
2018-11-20T23:30:01.505Z,53.23
2018-11-20T23:32:29.998Z,51.33
2018-11-20T23:34:58.428Z,51.43
2018-11-20T23:37:26.874Z,50.23
2018-11-20T23:39:55.742Z,49.60
2018-11-20T23:42:24.061Z,53.37
2018-11-20T23:44:52.544Z,60.13
2018-11-20T23:47:20.991Z,49.37
2018-11-20T23:49:52.619Z,54.37
2018-11-20T23:52:20.946Z,47.60
2018-11-20T23:54:49.418Z,50.70
2018-11-20T23:57:17.837Z,47.30
2018-11-20T23:59:46.362Z,47.83
